PWSweather.com
Personal Weather Stations
Station Observations
JOE4SPEED
Jupiter, Fl, Jupiter, FL 33458

Jupiter, FlJupiter, FL 33458

Lat: 26.9373, Lon: -80.1101

Elevation: 12

Station Type: Davis VP 2

http://www.joe4speed.com/wxindex.php

High Low Average
Temperature 88.0°F31.1°F 74.1°F23.4°F 77.4°F25.2°F
Dew Point 77.2°F25.1°F 70.4°F21.3°F 73.4°F23.0°F
Winds 12.5 mph WSW20.1 mph WSW Calm Calm 2.4 mph 3.9 mph
Wind Gusts 22.0 mph35.4 mph -- 4.4 mph7.1 mph
Humidity 93% 67% 88%
Pressure 29.96 in1014.60 in 29.86 in1011.20 in -
Precipitation 0.49 in12.40 in - -
Hour Temp Dew Point Humidity Winds Wind Gusts Pressure Precip Precip Rate Daily Precip Total
12:00 AM 75.0°F23.9°C 72.8°F22.7°C 93% 2.0 mph S3.2 kmh S 3.0 mph4.8 kmh 29.92 in1013.2 mb - 0.00 in0.0 mm 0.00 in0.0 mm
12:10 AM 75.0°F23.9°C 72.8°F22.7°C 93% 2.4 mph S3.9 kmh S 6.0 mph9.7 kmh 29.92 in1013.2 mb - 0.00 in0.0 mm 0.00 in0.0 mm
12:20 AM 75.0°F23.9°C 72.8°F22.7°C 93% 2.4 mph S3.9 kmh S 5.0 mph8.0 kmh 29.92 in1013.2 mb - 0.00 in0.0 mm 0.00 in0.0 mm
12:30 AM 75.0°F23.9°C 72.8°F22.7°C 93% 1.3 mph SSW2.1 kmh SSW 2.0 mph3.2 kmh 29.91 in1012.9 mb - 0.00 in0.0 mm 0.00 in0.0 mm
12:40 AM 75.1°F23.9°C 72.9°F22.7°C 93% 2.1 mph S3.4 kmh S 3.0 mph4.8 kmh 29.91 in1012.9 mb - 0.00 in0.0 mm 0.00 in0.0 mm
12:50 AM 75.1°F23.9°C 72.9°F22.7°C 93% 0.3 mph S0.5 kmh S 3.0 mph4.8 kmh 29.91 in1012.9 mb - 0.00 in0.0 mm 0.00 in0.0 mm
01:00 AM 75.1°F23.9°C 72.9°F22.7°C 93% 1.3 mph S2.1 kmh S 3.0 mph4.8 kmh 29.91 in1012.9 mb - 0.00 in0.0 mm 0.00 in0.0 mm
01:10 AM 75.1°F23.9°C 72.9°F22.7°C 93% 1.2 mph S1.9 kmh S 3.0 mph4.8 kmh 29.91 in1012.9 mb - 0.00 in0.0 mm 0.00 in0.0 mm
01:20 AM 75.1°F23.9°C 72.9°F22.7°C 93% 1.2 mph SSE1.9 kmh SSE 2.0 mph3.2 kmh 29.90 in1012.5 mb - 0.00 in0.0 mm 0.00 in0.0 mm
01:30 AM 75.1°F23.9°C 72.9°F22.7°C 93% 1.2 mph SSE1.9 kmh SSE 2.0 mph3.2 kmh 29.90 in1012.5 mb - 0.00 in0.0 mm 0.00 in0.0 mm
01:40 AM 75.1°F23.9°C 72.9°F22.7°C 93% 0.7 mph S1.1 kmh S 3.0 mph4.8 kmh 29.90 in1012.5 mb - 0.00 in0.0 mm 0.00 in0.0 mm
01:50 AM 75.1°F23.9°C 72.9°F22.7°C 93% 0.1 mph S0.2 kmh S 1.0 mph1.6 kmh 29.90 in1012.5 mb - 0.00 in0.0 mm 0.00 in0.0 mm
02:00 AM 75.1°F23.9°C 72.9°F22.7°C 93% 0.5 mph SW0.8 kmh SW 2.0 mph3.2 kmh 29.89 in1012.2 mb - 0.00 in0.0 mm 0.00 in0.0 mm
02:10 AM 75.1°F23.9°C 72.9°F22.7°C 93% Calm Calm -- 29.89 in1012.2 mb - 0.00 in0.0 mm 0.00 in0.0 mm
02:20 AM 75.2°F24.0°C 73.0°F22.8°C 93% 0.4 mph S0.6 kmh S 2.0 mph3.2 kmh 29.89 in1012.2 mb - 0.00 in0.0 mm 0.00 in0.0 mm
02:30 AM 75.2°F24.0°C 73.0°F22.8°C 93% 0.6 mph SSW1.0 kmh SSW 1.0 mph1.6 kmh 29.89 in1012.2 mb - 0.00 in0.0 mm 0.00 in0.0 mm
02:40 AM 75.2°F24.0°C 73.0°F22.8°C 93% 1.1 mph S1.8 kmh S 2.0 mph3.2 kmh 29.88 in1011.9 mb - 0.00 in0.0 mm 0.00 in0.0 mm
02:50 AM 75.1°F23.9°C 72.9°F22.7°C 93% 0.2 mph S0.3 kmh S 3.0 mph4.8 kmh 29.88 in1011.9 mb - 0.00 in0.0 mm 0.00 in0.0 mm
03:00 AM 75.1°F23.9°C 72.9°F22.7°C 93% 1.0 mph SW1.6 kmh SW 1.0 mph1.6 kmh 29.88 in1011.9 mb - 0.00 in0.0 mm 0.00 in0.0 mm
03:10 AM 75.1°F23.9°C 72.9°F22.7°C 93% 1.1 mph S1.8 kmh S 2.0 mph3.2 kmh 29.87 in1011.5 mb - 0.00 in0.0 mm 0.00 in0.0 mm
03:20 AM 75.1°F23.9°C 72.9°F22.7°C 93% 0.9 mph SSW1.4 kmh SSW 1.0 mph1.6 kmh 29.87 in1011.5 mb - 0.00 in0.0 mm 0.00 in0.0 mm
03:30 AM 75.0°F23.9°C 72.8°F22.7°C 93% 1.4 mph SW2.3 kmh SW 2.0 mph3.2 kmh 29.87 in1011.5 mb - 0.00 in0.0 mm 0.00 in0.0 mm
03:40 AM 75.0°F23.9°C 72.8°F22.7°C 93% 1.8 mph SSW2.9 kmh SSW 2.0 mph3.2 kmh 29.87 in1011.5 mb - 0.00 in0.0 mm 0.00 in0.0 mm
03:50 AM 74.9°F23.8°C 72.7°F22.6°C 93% 1.6 mph S2.6 kmh S 4.0 mph6.4 kmh 29.86 in1011.2 mb - 0.00 in0.0 mm 0.00 in0.0 mm
04:00 AM 74.8°F23.8°C 72.6°F22.6°C 93% 1.6 mph S2.6 kmh S 2.0 mph3.2 kmh 29.86 in1011.2 mb - 0.00 in0.0 mm 0.00 in0.0 mm
04:10 AM 74.7°F23.7°C 72.5°F22.5°C 93% 1.6 mph SE2.6 kmh SE 3.0 mph4.8 kmh 29.86 in1011.2 mb - 0.00 in0.0 mm 0.00 in0.0 mm
04:20 AM 74.7°F23.7°C 72.5°F22.5°C 93% 1.8 mph SSW2.9 kmh SSW 3.0 mph4.8 kmh 29.86 in1011.2 mb - 0.00 in0.0 mm 0.00 in0.0 mm
04:30 AM 74.7°F23.7°C 72.6°F22.6°C 93% 1.2 mph SSW1.9 kmh SSW 2.0 mph3.2 kmh 29.86 in1011.2 mb - 0.00 in0.0 mm 0.00 in0.0 mm
04:40 AM 74.8°F23.8°C 72.6°F22.6°C 93% 1.4 mph S2.3 kmh S 3.0 mph4.8 kmh 29.86 in1011.2 mb - 0.00 in0.0 mm 0.00 in0.0 mm
04:50 AM 74.8°F23.8°C 72.6°F22.6°C 93% 0.8 mph SSW1.3 kmh SSW 1.0 mph1.6 kmh 29.86 in1011.2 mb - 0.00 in0.0 mm 0.00 in0.0 mm
05:00 AM 74.7°F23.7°C 72.5°F22.5°C 93% 0.7 mph S1.1 kmh S 2.0 mph3.2 kmh 29.86 in1011.2 mb - 0.00 in0.0 mm 0.00 in0.0 mm
05:10 AM 74.6°F23.7°C 72.4°F22.4°C 93% 0.5 mph SSW0.8 kmh SSW 2.0 mph3.2 kmh 29.86 in1011.2 mb - 0.00 in0.0 mm 0.00 in0.0 mm
05:20 AM 74.5°F23.6°C 72.3°F22.4°C 93% 0.9 mph SW1.4 kmh SW 3.0 mph4.8 kmh 29.87 in1011.5 mb - 0.00 in0.0 mm 0.00 in0.0 mm
05:30 AM 74.4°F23.6°C 72.2°F22.3°C 93% Calm Calm -- 29.87 in1011.5 mb - 0.00 in0.0 mm 0.00 in0.0 mm
05:40 AM 74.3°F23.5°C 72.1°F22.3°C 93% 0.5 mph SSW0.8 kmh SSW 1.0 mph1.6 kmh 29.87 in1011.5 mb - 0.00 in0.0 mm 0.00 in0.0 mm
05:50 AM 74.2°F23.4°C 72.0°F22.2°C 93% 0.1 mph SW0.2 kmh SW -- 29.87 in1011.5 mb - 0.00 in0.0 mm 0.00 in0.0 mm
06:00 AM 74.2°F23.4°C 72.0°F22.2°C 93% 0.8 mph SSW1.3 kmh SSW 2.0 mph3.2 kmh 29.88 in1011.9 mb - 0.00 in0.0 mm 0.00 in0.0 mm
06:10 AM 74.2°F23.4°C 72.0°F22.2°C 93% 0.1 mph SSW0.2 kmh SSW -- 29.87 in1011.5 mb - 0.00 in0.0 mm 0.00 in0.0 mm
06:20 AM 74.2°F23.4°C 72.0°F22.2°C 93% 0.8 mph SSW1.3 kmh SSW 1.0 mph1.6 kmh 29.87 in1011.5 mb - 0.00 in0.0 mm 0.00 in0.0 mm
06:30 AM 74.2°F23.4°C 72.0°F22.2°C 93% 1.3 mph S2.1 kmh S 2.0 mph3.2 kmh 29.87 in1011.5 mb - 0.00 in0.0 mm 0.00 in0.0 mm
06:40 AM 74.2°F23.4°C 72.0°F22.2°C 93% 1.7 mph SW2.7 kmh SW 2.0 mph3.2 kmh 29.87 in1011.5 mb - 0.00 in0.0 mm 0.00 in0.0 mm
06:50 AM 74.2°F23.4°C 72.0°F22.2°C 93% 1.5 mph SW2.4 kmh SW 3.0 mph4.8 kmh 29.88 in1011.9 mb - 0.00 in0.0 mm 0.00 in0.0 mm
07:00 AM 74.1°F23.4°C 72.0°F22.2°C 93% 0.9 mph S1.4 kmh S 2.0 mph3.2 kmh 29.88 in1011.9 mb - 0.00 in0.0 mm 0.00 in0.0 mm
07:10 AM 74.1°F23.4°C 72.0°F22.2°C 93% 1.2 mph S1.9 kmh S 4.0 mph6.4 kmh 29.89 in1012.2 mb - 0.00 in0.0 mm 0.00 in0.0 mm
07:20 AM 74.2°F23.4°C 72.0°F22.2°C 93% 1.6 mph SSW2.6 kmh SSW 3.0 mph4.8 kmh 29.89 in1012.2 mb - 0.00 in0.0 mm 0.00 in0.0 mm
07:30 AM 74.3°F23.5°C 72.1°F22.3°C 93% 2.2 mph S3.5 kmh S 4.0 mph6.4 kmh 29.89 in1012.2 mb - 0.00 in0.0 mm 0.00 in0.0 mm
07:40 AM 74.4°F23.6°C 72.2°F22.3°C 93% 1.1 mph S1.8 kmh S 4.0 mph6.4 kmh 29.89 in1012.2 mb - 0.00 in0.0 mm 0.00 in0.0 mm
07:50 AM 74.5°F23.6°C 72.3°F22.4°C 93% 2.5 mph SW4.0 kmh SW 5.0 mph8.0 kmh 29.90 in1012.5 mb - 0.00 in0.0 mm 0.00 in0.0 mm
08:00 AM 74.9°F23.8°C 72.7°F22.6°C 93% 3.6 mph SW5.8 kmh SW 4.0 mph6.4 kmh 29.90 in1012.5 mb - 0.01 in0.3 mm 0.01 in0.3 mm
08:10 AM 75.2°F24.0°C 73.0°F22.8°C 93% 2.0 mph SSW3.2 kmh SSW 4.0 mph6.4 kmh 29.91 in1012.9 mb - 0.00 in0.0 mm 0.01 in0.3 mm
08:20 AM 75.5°F24.2°C 73.0°F22.8°C 92% 2.6 mph SW4.2 kmh SW 4.0 mph6.4 kmh 29.91 in1012.9 mb - 0.00 in0.0 mm 0.01 in0.3 mm
08:30 AM 76.1°F24.5°C 73.6°F23.1°C 92% 1.7 mph S2.7 kmh S 3.0 mph4.8 kmh 29.91 in1012.9 mb - 0.00 in0.0 mm 0.01 in0.3 mm
08:40 AM 76.7°F24.8°C 73.5°F23.1°C 90% 1.9 mph WSW3.1 kmh WSW 3.0 mph4.8 kmh 29.91 in1012.9 mb - 0.00 in0.0 mm 0.01 in0.3 mm
08:50 AM 77.5°F25.3°C 74.0°F23.3°C 89% 2.7 mph NNW4.3 kmh NNW 6.0 mph9.7 kmh 29.91 in1012.9 mb - 0.00 in0.0 mm 0.01 in0.3 mm
09:00 AM 78.4°F25.8°C 74.6°F23.7°C 88% 1.4 mph SW2.3 kmh SW 3.0 mph4.8 kmh 29.91 in1012.9 mb - 0.00 in0.0 mm 0.01 in0.3 mm
09:10 AM 79.4°F26.3°C 74.5°F23.6°C 85% 1.4 mph WSW2.3 kmh WSW 2.0 mph3.2 kmh 29.91 in1012.9 mb - 0.00 in0.0 mm 0.01 in0.3 mm
09:20 AM 80.2°F26.8°C 74.9°F23.8°C 84% 1.5 mph SW2.4 kmh SW 2.0 mph3.2 kmh 29.91 in1012.9 mb - 0.00 in0.0 mm 0.01 in0.3 mm
09:30 AM 81.1°F27.3°C 75.4°F24.1°C 83% 3.3 mph SSW5.3 kmh SSW 8.0 mph12.9 kmh 29.92 in1013.2 mb - 0.00 in0.0 mm 0.01 in0.3 mm
09:40 AM 81.6°F27.6°C 75.2°F24.0°C 81% 5.6 mph WSW9.0 kmh WSW 9.0 mph14.5 kmh 29.92 in1013.2 mb - 0.00 in0.0 mm 0.01 in0.3 mm
09:50 AM 82.3°F27.9°C 75.9°F24.4°C 81% 1.8 mph SW2.9 kmh SW 4.0 mph6.4 kmh 29.92 in1013.2 mb - 0.00 in0.0 mm 0.01 in0.3 mm
10:00 AM 82.9°F28.3°C 75.7°F24.3°C 79% 3.1 mph S5.0 kmh S 7.0 mph11.3 kmh 29.92 in1013.2 mb - 0.00 in0.0 mm 0.01 in0.3 mm
10:10 AM 83.4°F28.6°C 76.2°F24.6°C 79% 2.3 mph SSW3.7 kmh SSW 7.0 mph11.3 kmh 29.92 in1013.2 mb - 0.00 in0.0 mm 0.01 in0.3 mm
10:20 AM 83.9°F28.8°C 76.3°F24.6°C 78% 2.8 mph SW4.5 kmh SW 5.0 mph8.0 kmh 29.92 in1013.2 mb - 0.00 in0.0 mm 0.01 in0.3 mm
10:30 AM 84.1°F28.9°C 76.1°F24.5°C 77% 2.3 mph SW3.7 kmh SW 3.0 mph4.8 kmh 29.92 in1013.2 mb - 0.00 in0.0 mm 0.01 in0.3 mm
10:40 AM 84.5°F29.2°C 76.9°F24.9°C 78% 3.2 mph S5.1 kmh S 5.0 mph8.0 kmh 29.93 in1013.5 mb - 0.00 in0.0 mm 0.01 in0.3 mm
10:50 AM 85.3°F29.6°C 76.5°F24.7°C 75% 2.6 mph NW4.2 kmh NW 5.0 mph8.0 kmh 29.93 in1013.5 mb - 0.00 in0.0 mm 0.01 in0.3 mm
11:00 AM 85.9°F29.9°C 77.0°F25.0°C 75% 1.8 mph WSW2.9 kmh WSW 3.0 mph4.8 kmh 29.92 in1013.2 mb - 0.00 in0.0 mm 0.01 in0.3 mm
11:10 AM 86.5°F30.3°C 76.8°F24.9°C 73% 1.8 mph WSW2.9 kmh WSW 3.0 mph4.8 kmh 29.93 in1013.5 mb - 0.00 in0.0 mm 0.01 in0.3 mm
11:20 AM 85.5°F29.7°C 76.3°F24.6°C 74% 4.7 mph SW7.6 kmh SW 8.0 mph12.9 kmh 29.93 in1013.5 mb - 0.00 in0.0 mm 0.01 in0.3 mm
11:30 AM 84.2°F29.0°C 76.2°F24.6°C 77% 4.5 mph SW7.2 kmh SW 4.0 mph6.4 kmh 29.94 in1013.9 mb - 0.00 in0.0 mm 0.01 in0.3 mm
11:40 AM 84.9°F29.4°C 77.2°F25.1°C 78% 3.6 mph S5.8 kmh S 10.0 mph16.1 kmh 29.93 in1013.5 mb - 0.00 in0.0 mm 0.01 in0.3 mm
11:50 AM 86.3°F30.2°C 76.2°F24.6°C 72% 2.5 mph WSW4.0 kmh WSW 4.0 mph6.4 kmh 29.94 in1013.9 mb - 0.00 in0.0 mm 0.01 in0.3 mm
12:00 PM 87.5°F30.8°C 76.9°F24.9°C 71% 3.4 mph SW5.5 kmh SW 5.0 mph8.0 kmh 29.93 in1013.5 mb - 0.00 in0.0 mm 0.01 in0.3 mm
12:10 PM 88.0°F31.1°C 75.7°F24.3°C 67% 3.1 mph WSW5.0 kmh WSW 7.0 mph11.3 kmh 29.93 in1013.5 mb - 0.00 in0.0 mm 0.01 in0.3 mm
12:20 PM 87.9°F31.1°C 75.6°F24.2°C 67% 4.3 mph SW6.9 kmh SW 10.0 mph16.1 kmh 29.93 in1013.5 mb - 0.00 in0.0 mm 0.01 in0.3 mm
12:30 PM 78.5°F25.8°C 71.8°F22.1°C 80% 3.3 mph SE5.3 kmh SE 5.0 mph8.0 kmh 29.95 in1014.2 mb - 0.19 in4.8 mm 0.20 in5.1 mm
12:40 PM 76.2°F24.6°C 71.7°F22.1°C 86% 1.5 mph WSW2.4 kmh WSW 4.0 mph6.4 kmh 29.94 in1013.9 mb - 0.03 in0.8 mm 0.22 in5.6 mm
12:50 PM 76.6°F24.8°C 73.1°F22.8°C 89% 1.8 mph W2.9 kmh W 2.0 mph3.2 kmh 29.94 in1013.9 mb - 0.00 in0.0 mm 0.22 in5.6 mm
01:00 PM 78.6°F25.9°C 75.4°F24.1°C 90% 1.5 mph WSW2.4 kmh WSW 2.0 mph3.2 kmh 29.94 in1013.9 mb - 0.00 in0.0 mm 0.22 in5.6 mm
01:10 PM 79.2°F26.2°C 75.3°F24.1°C 88% 2.4 mph WNW3.9 kmh WNW 7.0 mph11.3 kmh 29.94 in1013.9 mb - 0.00 in0.0 mm 0.22 in5.6 mm
01:20 PM 80.8°F27.1°C 75.5°F24.2°C 84% 2.0 mph SW3.2 kmh SW 4.0 mph6.4 kmh 29.94 in1013.9 mb - 0.00 in0.0 mm 0.22 in5.6 mm
01:30 PM 82.2°F27.9°C 75.4°F24.1°C 80% 3.4 mph S5.5 kmh S 7.0 mph11.3 kmh 29.94 in1013.9 mb - 0.00 in0.0 mm 0.22 in5.6 mm
01:40 PM 83.8°F28.8°C 76.9°F24.9°C 80% 3.6 mph NW5.8 kmh NW 3.0 mph4.8 kmh 29.93 in1013.5 mb - 0.00 in0.0 mm 0.22 in5.6 mm
01:50 PM 84.8°F29.3°C 76.0°F24.4°C 75% 2.4 mph S3.9 kmh S 9.0 mph14.5 kmh 29.93 in1013.5 mb - 0.00 in0.0 mm 0.22 in5.6 mm
02:00 PM 85.8°F29.9°C 76.6°F24.8°C 74% 1.8 mph S2.9 kmh S 5.0 mph8.0 kmh 29.93 in1013.5 mb - 0.00 in0.0 mm 0.22 in5.6 mm
02:10 PM 86.5°F30.3°C 76.8°F24.9°C 73% 3.7 mph SW6.0 kmh SW 7.0 mph11.3 kmh 29.93 in1013.5 mb - 0.00 in0.0 mm 0.22 in5.6 mm
02:20 PM 86.5°F30.3°C 76.0°F24.4°C 71% 1.3 mph WSW2.1 kmh WSW 3.0 mph4.8 kmh 29.93 in1013.5 mb - 0.00 in0.0 mm 0.22 in5.6 mm
02:30 PM 86.8°F30.4°C 75.8°F24.3°C 70% 3.1 mph WSW5.0 kmh WSW 6.0 mph9.7 kmh 29.92 in1013.2 mb - 0.00 in0.0 mm 0.22 in5.6 mm
02:40 PM 85.1°F29.5°C 73.3°F22.9°C 68% 12.5 mph WSW20.1 kmh WSW 22.0 mph35.4 kmh 29.93 in1013.5 mb - 0.00 in0.0 mm 0.22 in5.6 mm
02:50 PM 79.9°F26.6°C 72.0°F22.2°C 77% 10.1 mph S16.3 kmh S 18.0 mph29.0 kmh 29.95 in1014.2 mb - 0.01 in0.3 mm 0.23 in5.8 mm
03:00 PM 75.6°F24.2°C 70.4°F21.3°C 84% 7.7 mph SSW12.4 kmh SSW 11.0 mph17.7 kmh 29.95 in1014.2 mb - 0.06 in1.5 mm 0.28 in7.1 mm
03:10 PM 74.7°F23.7°C 70.5°F21.4°C 87% 2.5 mph S4.0 kmh S 3.0 mph4.8 kmh 29.95 in1014.2 mb - 0.04 in1.0 mm 0.32 in8.1 mm
03:20 PM 74.6°F23.7°C 71.1°F21.7°C 89% 3.5 mph SSE5.6 kmh SSE 5.0 mph8.0 kmh 29.95 in1014.2 mb - 0.02 in0.5 mm 0.34 in8.6 mm
03:30 PM 75.0°F23.9°C 71.9°F22.2°C 90% 2.5 mph SW4.0 kmh SW 6.0 mph9.7 kmh 29.94 in1013.9 mb - 0.01 in0.3 mm 0.35 in8.9 mm
03:40 PM 75.2°F24.0°C 72.1°F22.3°C 90% 3.1 mph S5.0 kmh S 6.0 mph9.7 kmh 29.94 in1013.9 mb - 0.00 in0.0 mm 0.35 in8.9 mm
03:50 PM 75.5°F24.2°C 72.7°F22.6°C 91% 4.2 mph SSE6.8 kmh SSE 7.0 mph11.3 kmh 29.94 in1013.9 mb - 0.01 in0.3 mm 0.36 in9.1 mm
04:00 PM 75.7°F24.3°C 72.9°F22.7°C 91% 3.2 mph S5.1 kmh S 6.0 mph9.7 kmh 29.94 in1013.9 mb - 0.01 in0.3 mm 0.36 in9.1 mm
04:10 PM 75.8°F24.3°C 73.0°F22.8°C 91% 2.7 mph SSE4.3 kmh SSE 4.0 mph6.4 kmh 29.94 in1013.9 mb - 0.01 in0.3 mm 0.37 in9.4 mm
04:20 PM 76.1°F24.5°C 73.3°F22.9°C 91% 3.2 mph S5.1 kmh S 3.0 mph4.8 kmh 29.94 in1013.9 mb - 0.01 in0.3 mm 0.38 in9.7 mm
04:30 PM 76.3°F24.6°C 73.8°F23.2°C 92% 5.3 mph S8.5 kmh S 8.0 mph12.9 kmh 29.94 in1013.9 mb - 0.00 in0.0 mm 0.38 in9.7 mm
04:40 PM 75.9°F24.4°C 73.1°F22.8°C 91% 5.0 mph WSW8.0 kmh WSW 12.0 mph19.3 kmh 29.93 in1013.5 mb - 0.01 in0.3 mm 0.39 in9.9 mm
04:50 PM 75.6°F24.2°C 73.1°F22.8°C 92% 3.4 mph SSW5.5 kmh SSW 5.0 mph8.0 kmh 29.93 in1013.5 mb - 0.01 in0.3 mm 0.40 in10.2 mm
05:00 PM 75.5°F24.2°C 72.7°F22.6°C 91% 1.2 mph SSW1.9 kmh SSW 2.0 mph3.2 kmh 29.92 in1013.2 mb - 0.02 in0.5 mm 0.42 in10.7 mm
05:10 PM 75.7°F24.3°C 73.2°F22.9°C 92% 1.8 mph SSW2.9 kmh SSW 3.0 mph4.8 kmh 29.93 in1013.5 mb - 0.02 in0.5 mm 0.43 in10.9 mm
05:20 PM 75.9°F24.4°C 73.5°F23.1°C 92% 1.9 mph SSW3.1 kmh SSW 4.0 mph6.4 kmh 29.92 in1013.2 mb - 0.01 in0.3 mm 0.44 in11.2 mm
05:30 PM 76.0°F24.4°C 73.5°F23.1°C 92% 4.1 mph SW6.6 kmh SW 6.0 mph9.7 kmh 29.92 in1013.2 mb - 0.00 in0.0 mm 0.44 in11.2 mm
05:40 PM 76.0°F24.4°C 73.5°F23.1°C 92% 0.5 mph S0.8 kmh S 1.0 mph1.6 kmh 29.91 in1012.9 mb - 0.00 in0.0 mm 0.44 in11.2 mm
05:50 PM 76.3°F24.6°C 73.8°F23.2°C 92% 3.0 mph SW4.8 kmh SW 5.0 mph8.0 kmh 29.91 in1012.9 mb - 0.01 in0.3 mm 0.45 in11.4 mm
06:00 PM 76.5°F24.7°C 74.0°F23.3°C 92% 2.8 mph SW4.5 kmh SW 8.0 mph12.9 kmh 29.91 in1012.9 mb - 0.00 in0.0 mm 0.45 in11.4 mm
06:10 PM 76.3°F24.6°C 73.8°F23.2°C 92% 3.6 mph SW5.8 kmh SW 8.0 mph12.9 kmh 29.91 in1012.9 mb - 0.00 in0.0 mm 0.45 in11.4 mm
06:20 PM 76.2°F24.6°C 73.7°F23.2°C 92% 4.7 mph SSW7.6 kmh SSW 7.0 mph11.3 kmh 29.91 in1012.9 mb - 0.00 in0.0 mm 0.45 in11.4 mm
06:30 PM 76.0°F24.4°C 73.2°F22.9°C 91% 3.8 mph WSW6.1 kmh WSW 9.0 mph14.5 kmh 29.91 in1012.9 mb - 0.00 in0.0 mm 0.45 in11.4 mm
06:40 PM 75.9°F24.4°C 73.1°F22.8°C 91% 2.5 mph SSE4.0 kmh SSE 6.0 mph9.7 kmh 29.91 in1012.9 mb - 0.00 in0.0 mm 0.45 in11.4 mm
06:50 PM 76.2°F24.6°C 73.4°F23.0°C 91% 2.4 mph SSW3.9 kmh SSW 5.0 mph8.0 kmh 29.91 in1012.9 mb - 0.00 in0.0 mm 0.45 in11.4 mm
07:00 PM 76.4°F24.7°C 73.6°F23.1°C 91% 3.5 mph S5.6 kmh S 6.0 mph9.7 kmh 29.90 in1012.5 mb - 0.00 in0.0 mm 0.45 in11.4 mm
07:10 PM 76.7°F24.8°C 73.5°F23.1°C 90% 3.9 mph S6.3 kmh S 7.0 mph11.3 kmh 29.91 in1012.9 mb - 0.00 in0.0 mm 0.45 in11.4 mm
07:20 PM 76.8°F24.9°C 73.6°F23.1°C 90% 3.9 mph SE6.3 kmh SE 5.0 mph8.0 kmh 29.90 in1012.5 mb - 0.00 in0.0 mm 0.45 in11.4 mm
07:30 PM 77.1°F25.1°C 74.0°F23.3°C 90% 2.9 mph SSE4.7 kmh SSE 5.0 mph8.0 kmh 29.91 in1012.9 mb - 0.00 in0.0 mm 0.45 in11.4 mm
07:40 PM 77.4°F25.2°C 73.9°F23.3°C 89% 3.7 mph SSW6.0 kmh SSW 6.0 mph9.7 kmh 29.91 in1012.9 mb - 0.00 in0.0 mm 0.45 in11.4 mm
07:50 PM 77.2°F25.1°C 73.7°F23.2°C 89% 2.6 mph SSW4.2 kmh SSW 6.0 mph9.7 kmh 29.91 in1012.9 mb - 0.00 in0.0 mm 0.45 in11.4 mm
08:00 PM 77.0°F25.0°C 73.2°F22.9°C 88% 3.8 mph SSW6.1 kmh SSW 6.0 mph9.7 kmh 29.91 in1012.9 mb - 0.00 in0.0 mm 0.45 in11.4 mm
08:10 PM 76.9°F24.9°C 73.1°F22.8°C 88% 3.4 mph SSW5.5 kmh SSW 6.0 mph9.7 kmh 29.91 in1012.9 mb - 0.00 in0.0 mm 0.45 in11.4 mm
08:20 PM 76.7°F24.8°C 72.9°F22.7°C 88% 1.8 mph SSW2.9 kmh SSW 2.0 mph3.2 kmh 29.91 in1012.9 mb - 0.00 in0.0 mm 0.45 in11.4 mm
08:30 PM 76.6°F24.8°C 72.8°F22.7°C 88% 1.2 mph S1.9 kmh S 2.0 mph3.2 kmh 29.92 in1013.2 mb - 0.00 in0.0 mm 0.45 in11.4 mm
08:40 PM 76.6°F24.8°C 72.8°F22.7°C 88% 2.1 mph SW3.4 kmh SW 3.0 mph4.8 kmh 29.92 in1013.2 mb - 0.00 in0.0 mm 0.45 in11.4 mm
08:50 PM 76.5°F24.7°C 72.7°F22.6°C 88% 2.4 mph S3.9 kmh S 3.0 mph4.8 kmh 29.93 in1013.5 mb - 0.00 in0.0 mm 0.45 in11.4 mm
09:00 PM 76.5°F24.7°C 72.7°F22.6°C 88% 2.4 mph S3.9 kmh S 4.0 mph6.4 kmh 29.93 in1013.5 mb - 0.00 in0.0 mm 0.45 in11.4 mm
09:10 PM 76.4°F24.7°C 72.6°F22.6°C 88% 2.3 mph SSE3.7 kmh SSE 4.0 mph6.4 kmh 29.93 in1013.5 mb - 0.00 in0.0 mm 0.45 in11.4 mm
09:20 PM 76.2°F24.6°C 72.4°F22.4°C 88% 3.3 mph SSE5.3 kmh SSE 6.0 mph9.7 kmh 29.93 in1013.5 mb - 0.00 in0.0 mm 0.45 in11.4 mm
09:30 PM 76.2°F24.6°C 72.4°F22.4°C 88% 2.4 mph S3.9 kmh S 3.0 mph4.8 kmh 29.94 in1013.9 mb - 0.00 in0.0 mm 0.45 in11.4 mm
09:40 PM 76.1°F24.5°C 72.3°F22.4°C 88% 2.2 mph SSE3.5 kmh SSE 3.0 mph4.8 kmh 29.94 in1013.9 mb - 0.00 in0.0 mm 0.45 in11.4 mm
09:50 PM 76.1°F24.5°C 72.3°F22.4°C 88% 1.8 mph S2.9 kmh S 5.0 mph8.0 kmh 29.94 in1013.9 mb - 0.00 in0.0 mm 0.45 in11.4 mm
10:00 PM 76.0°F24.4°C 72.2°F22.3°C 88% 2.5 mph S4.0 kmh S 4.0 mph6.4 kmh 29.94 in1013.9 mb - 0.00 in0.0 mm 0.45 in11.4 mm
10:10 PM 75.9°F24.4°C 72.1°F22.3°C 88% 1.7 mph S2.7 kmh S 4.0 mph6.4 kmh 29.94 in1013.9 mb - 0.00 in0.0 mm 0.45 in11.4 mm
10:20 PM 75.8°F24.3°C 72.0°F22.2°C 88% 1.4 mph SSE2.3 kmh SSE 4.0 mph6.4 kmh 29.95 in1014.2 mb - 0.00 in0.0 mm 0.45 in11.4 mm
10:30 PM 75.7°F24.3°C 72.3°F22.4°C 89% 2.0 mph S3.2 kmh S 2.0 mph3.2 kmh 29.95 in1014.2 mb - 0.00 in0.0 mm 0.45 in11.4 mm
10:40 PM 75.7°F24.3°C 72.2°F22.3°C 89% 3.4 mph SSW5.5 kmh SSW 5.0 mph8.0 kmh 29.95 in1014.2 mb - 0.00 in0.0 mm 0.45 in11.4 mm
10:50 PM 75.8°F24.3°C 72.3°F22.4°C 89% 4.0 mph S6.4 kmh S 8.0 mph12.9 kmh 29.95 in1014.2 mb - 0.00 in0.0 mm 0.45 in11.4 mm
11:00 PM 75.9°F24.4°C 72.1°F22.3°C 88% 3.2 mph SW5.1 kmh SW 5.0 mph8.0 kmh 29.95 in1014.2 mb - 0.00 in0.0 mm 0.45 in11.4 mm
11:10 PM 76.0°F24.4°C 72.2°F22.3°C 88% 2.8 mph S4.5 kmh S 5.0 mph8.0 kmh 29.95 in1014.2 mb - 0.00 in0.0 mm 0.45 in11.4 mm
11:20 PM 76.2°F24.6°C 72.4°F22.4°C 88% 2.5 mph S4.0 kmh S 4.0 mph6.4 kmh 29.96 in1014.6 mb - 0.00 in0.0 mm 0.45 in11.4 mm
11:30 PM 76.4°F24.7°C 72.6°F22.6°C 88% 3.2 mph S5.1 kmh S 9.0 mph14.5 kmh 29.96 in1014.6 mb - 0.00 in0.0 mm 0.45 in11.4 mm
11:40 PM 76.5°F24.7°C 72.7°F22.6°C 88% 4.2 mph SSE6.8 kmh SSE 6.0 mph9.7 kmh 29.96 in1014.6 mb - 0.00 in0.0 mm 0.45 in11.4 mm
11:50 PM 76.5°F24.7°C 72.7°F22.6°C 88% 3.2 mph S5.1 kmh S 4.0 mph6.4 kmh 29.96 in1014.6 mb - 0.00 in0.0 mm 0.45 in11.4 mm